Contacto @
curve curve curve curve

METEOROLOGÍA AERONÁUTICA

INFORMACIÓN METEOROLÓGICA

En este apartado aparece la información meteorológica aeronáutica que es utilizada en las prácticas de los alumnos de la Escuela de Pilotos de nuestro centro durante su formación, por lo que puede no ser actual y debe ser usada por su propia cuenta y riesgo. AERBRAVA no se hace responsable de su uso.

TIEMPO ACTUAL

Satélite meteorológico sat24.com

Servei Meteorològic de Catalunya
LEGE 290700Z VRB01KT 9999 FEW025 18/15 Q1008
LEGE 290630Z VRB01KT 9999 FEW025 17/15 Q1008
LEGE 290600Z 00000KT 9999 FEW020 16/15 Q1007
LEGE 290530Z VRB01KT 9999 FEW020 15/14 Q1007
TAF LEGE 290500Z 2906/3006 VRB05KT 9999 FEW030 TX25/2914Z TN15/2906Z
TEMPO 2912/2920 03010KT
TEMPO 2920/3002 22010KT
National Weather service
Matrícula abierta Piloto RPAs - Drones - UAVs.
Jueves
29 Junio de 2017
Página cargada a las 07:20 UTC
Orto: 04:20 UTC
Ocaso: 19:24 UTC

2017/06/29 07:00 LEGE 290700Z VRB01KT 9999 FEW025 18/15 Q1008


2017/06/29 06:27 TAF LEGE 290500Z 2906/3006 VRB05KT 9999 FEW030 TX25/2914Z TN15/2906Z TEMPO 2912/2920 03010KT TEMPO 2920/3002 22010KT
Sólo se muestran los aviones equipados con el sistema ADS-B en directo desde FlightRadar24
Aerbrava en el facebook Aerbrava en el youtube Aerbrava en el twitter Google+
Instagram tumblr flikr
logo inicio Nosotros | Mapa del sitio | Oportunidades profesionales | Privacidad | Contacte con nosotros | © 2017 AERBRAVA, SCP